createdAt,value
2023-05-01T00:01:00.344Z,4.80
2023-05-01T00:03:28.929Z,5.15
2023-05-01T00:06:01.268Z,6.18
2023-05-01T00:08:29.582Z,5.00
2023-05-01T00:11:03.354Z,3.70
2023-05-01T00:13:31.920Z,6.40
2023-05-01T00:16:00.008Z,3.58
2023-05-01T00:18:30.640Z,5.70
2023-05-01T00:20:59.102Z,10.20
2023-05-01T00:23:28.617Z,7.60
2023-05-01T00:25:56.753Z,8.77
2023-05-01T00:28:26.529Z,4.90
2023-05-01T00:30:54.597Z,6.70
2023-05-01T00:33:22.809Z,5.50
2023-05-01T00:35:51.493Z,6.80
2023-05-01T00:38:19.566Z,4.87
2023-05-01T00:40:48.468Z,5.25
2023-05-01T00:43:16.837Z,6.47
2023-05-01T00:45:47.320Z,4.75
2023-05-01T00:48:16.376Z,7.15
2023-05-01T00:50:45.279Z,4.93
2023-05-01T00:53:13.696Z,5.07
2023-05-01T00:55:43.380Z,7.12
2023-05-01T00:58:12.409Z,6.03
2023-05-01T01:00:40.792Z,5.22
2023-05-01T01:03:10.382Z,5.47
2023-05-01T01:05:43.441Z,6.85
2023-05-01T01:08:20.422Z,7.35
2023-05-01T01:10:57.165Z,7.00
2023-05-01T01:13:31.849Z,10.65
2023-05-01T01:16:10.141Z,4.57
2023-05-01T01:18:44.842Z,3.67
2023-05-01T01:21:19.825Z,6.05
2023-05-01T01:24:18.239Z,6.43
2023-05-01T01:27:22.351Z,7.85
2023-05-01T01:30:08.129Z,8.20
2023-05-01T01:33:15.655Z,4.43
2023-05-01T01:35:54.749Z,7.72
2023-05-01T01:38:29.565Z,5.93
2023-05-01T01:41:02.912Z,4.00
2023-05-01T01:43:39.539Z,4.30
2023-05-01T01:46:09.196Z,6.10
2023-05-01T01:48:41.452Z,5.10
2023-05-01T01:51:15.754Z,6.47
2023-05-01T01:53:50.578Z,5.05
2023-05-01T01:56:21.544Z,3.10
2023-05-01T01:58:53.001Z,4.03
2023-05-01T02:01:23.269Z,7.62
2023-05-01T02:03:52.940Z,4.95
2023-05-01T02:06:24.385Z,5.40
2023-05-01T02:08:53.037Z,6.03
2023-05-01T02:11:22.880Z,6.22
2023-05-01T02:13:52.576Z,5.70
2023-05-01T02:16:23.146Z,4.37
2023-05-01T02:18:52.756Z,3.15
2023-05-01T02:21:23.484Z,9.02
2023-05-01T02:23:52.167Z,5.22
2023-05-01T02:26:25.058Z,5.15
2023-05-01T02:28:53.365Z,3.40
2023-05-01T02:31:22.046Z,4.57
2023-05-01T02:33:50.267Z,2.95
2023-05-01T02:36:18.876Z,4.32
2023-05-01T02:38:51.031Z,7.03
2023-05-01T02:41:23.073Z,5.07
2023-05-01T02:43:56.961Z,4.50
2023-05-01T02:46:27.545Z,4.85
2023-05-01T02:48:58.410Z,3.62
2023-05-01T02:51:28.032Z,5.07
2023-05-01T02:53:59.295Z,7.97
2023-05-01T02:56:28.101Z,2.53
2023-05-01T02:58:56.885Z,4.87
2023-05-01T03:01:25.207Z,2.55
2023-05-01T03:03:53.674Z,4.37
2023-05-01T03:06:21.701Z,4.78
2023-05-01T03:08:49.616Z,3.20
2023-05-01T03:11:19.295Z,1.70
2023-05-01T03:13:47.623Z,4.05
2023-05-01T03:16:15.653Z,3.92
2023-05-01T03:18:43.932Z,3.30
2023-05-01T03:21:12.807Z,5.03
2023-05-01T03:23:40.902Z,4.07
2023-05-01T03:26:09.287Z,3.42
2023-05-01T03:28:38.797Z,7.00
2023-05-01T03:31:07.905Z,2.83
2023-05-01T03:33:36.488Z,3.80
2023-05-01T03:36:06.522Z,3.90
2023-05-01T03:38:34.711Z,3.50
2023-05-01T03:41:06.073Z,6.12
2023-05-01T03:43:36.024Z,3.25
2023-05-01T03:46:06.658Z,3.40
2023-05-01T03:48:34.808Z,8.07
2023-05-01T03:51:03.195Z,3.83
2023-05-01T03:53:32.516Z,5.55
2023-05-01T03:56:01.139Z,2.67
2023-05-01T03:58:29.231Z,4.43
2023-05-01T04:01:00.932Z,5.20
2023-05-01T04:03:30.783Z,3.90
2023-05-01T04:05:59.538Z,3.65
2023-05-01T04:08:27.804Z,3.62
2023-05-01T04:10:56.992Z,3.97
2023-05-01T04:13:25.188Z,4.12
2023-05-01T04:15:55.299Z,3.58
2023-05-01T04:18:24.890Z,4.82
2023-05-01T04:20:56.579Z,3.78
2023-05-01T04:23:25.208Z,4.32
2023-05-01T04:25:54.848Z,4.47
2023-05-01T04:28:22.960Z,4.40
2023-05-01T04:30:51.503Z,6.80
2023-05-01T04:33:19.586Z,3.58
2023-05-01T04:35:48.779Z,7.03
2023-05-01T04:38:19.179Z,6.05
2023-05-01T04:40:47.541Z,3.45
2023-05-01T04:43:16.020Z,3.85
2023-05-01T04:45:45.631Z,4.80
2023-05-01T04:48:13.609Z,11.65
2023-05-01T04:50:41.693Z,3.58
2023-05-01T04:53:10.053Z,6.00
2023-05-01T04:55:39.719Z,5.87
2023-05-01T04:58:08.138Z,5.57
2023-05-01T05:00:37.031Z,6.62
2023-05-01T05:03:06.800Z,2.72
2023-05-01T05:05:35.354Z,4.55
2023-05-01T05:08:04.217Z,4.50
2023-05-01T05:10:32.934Z,4.00
2023-05-01T05:13:03.257Z,6.43
2023-05-01T05:15:31.879Z,6.82
2023-05-01T05:18:00.101Z,5.00
2023-05-01T05:20:29.250Z,4.78
2023-05-01T05:22:57.627Z,5.85
2023-05-01T05:25:25.806Z,5.47
2023-05-01T05:27:54.188Z,7.35
2023-05-01T05:30:23.930Z,5.15
2023-05-01T05:32:52.149Z,8.70
2023-05-01T05:35:21.614Z,9.00
2023-05-01T05:37:50.461Z,6.03
2023-05-01T05:40:19.431Z,9.77
2023-05-01T05:42:47.947Z,5.37
2023-05-01T05:45:16.582Z,7.43
2023-05-01T05:47:46.725Z,7.20
2023-05-01T05:50:15.574Z,11.70
2023-05-01T05:52:44.775Z,6.37
2023-05-01T05:55:13.257Z,9.57
2023-05-01T05:57:43.038Z,7.62
2023-05-01T06:00:12.669Z,8.13
2023-05-01T06:02:43.741Z,9.93
2023-05-01T06:05:13.744Z,11.48
2023-05-01T06:07:43.618Z,13.88
2023-05-01T06:10:12.155Z,12.82
2023-05-01T06:12:46.020Z,15.30
2023-05-01T06:15:18.062Z,14.60
2023-05-01T06:17:47.454Z,16.55
2023-05-01T06:20:17.258Z,16.48
2023-05-01T06:22:46.811Z,19.73
2023-05-01T06:25:15.603Z,19.05
2023-05-01T06:27:43.774Z,14.27
2023-05-01T06:30:13.268Z,15.85
2023-05-01T06:32:43.667Z,18.02
2023-05-01T06:35:12.151Z,19.12
2023-05-01T06:37:41.501Z,14.05
2023-05-01T06:40:10.807Z,19.77
2023-05-01T06:42:39.705Z,19.37
2023-05-01T06:45:09.168Z,22.75
2023-05-01T06:47:37.150Z,19.73
2023-05-01T06:50:07.479Z,18.60
2023-05-01T06:52:35.518Z,19.27
2023-05-01T06:55:05.111Z,17.62
2023-05-01T06:57:33.437Z,17.58
2023-05-01T07:00:02.566Z,20.80
2023-05-01T07:02:30.703Z,15.82
2023-05-01T07:04:59.329Z,19.67
2023-05-01T07:07:28.069Z,20.88
2023-05-01T07:09:56.253Z,17.15
2023-05-01T07:12:26.021Z,18.55
2023-05-01T07:14:54.082Z,17.30
2023-05-01T07:17:22.179Z,17.35
2023-05-01T07:19:50.808Z,18.37
2023-05-01T07:22:18.774Z,16.98
2023-05-01T07:24:46.783Z,18.58
2023-05-01T07:27:15.195Z,20.83
2023-05-01T07:29:44.642Z,17.95
2023-05-01T07:32:12.991Z,18.90
2023-05-01T07:34:41.586Z,17.65
2023-05-01T07:37:09.663Z,15.82
2023-05-01T07:39:37.878Z,19.60
2023-05-01T07:42:06.660Z,14.95
2023-05-01T07:44:35.028Z,20.08
2023-05-01T07:47:08.446Z,14.68
2023-05-01T07:49:38.176Z,19.40
2023-05-01T07:52:07.623Z,17.87
2023-05-01T07:54:35.896Z,17.52
2023-05-01T07:57:05.017Z,17.15
2023-05-01T07:59:33.282Z,21.77
2023-05-01T08:02:01.723Z,18.27
2023-05-01T08:04:31.400Z,15.85
2023-05-01T08:06:59.489Z,16.52
2023-05-01T08:09:27.739Z,19.92
2023-05-01T08:11:56.115Z,17.92
2023-05-01T08:14:24.432Z,17.90
2023-05-01T08:16:55.461Z,19.60
2023-05-01T08:19:24.557Z,14.00
2023-05-01T08:21:53.973Z,14.63
2023-05-01T08:24:22.049Z,13.93
2023-05-01T08:26:50.622Z,17.80
2023-05-01T08:29:18.744Z,14.70
2023-05-01T08:31:46.903Z,14.02
2023-05-01T08:34:15.297Z,15.73
2023-05-01T08:36:43.385Z,13.65
2023-05-01T08:39:13.085Z,15.60
2023-05-01T08:41:41.514Z,15.18
2023-05-01T08:44:11.754Z,15.98
2023-05-01T08:46:49.734Z,14.87
2023-05-01T08:49:19.068Z,13.40
2023-05-01T08:51:49.972Z,16.33
2023-05-01T08:54:22.161Z,12.75
2023-05-01T08:56:52.844Z,13.68
2023-05-01T08:59:23.234Z,10.23
2023-05-01T09:01:52.902Z,10.93
2023-05-01T09:04:22.195Z,16.25
2023-05-01T09:06:51.050Z,13.30
2023-05-01T09:09:20.573Z,12.88
2023-05-01T09:11:48.961Z,11.10
2023-05-01T09:14:17.297Z,12.35
2023-05-01T09:16:45.437Z,10.85
2023-05-01T09:19:13.864Z,13.38
2023-05-01T09:21:42.013Z,17.98
2023-05-01T09:24:10.151Z,9.55
2023-05-01T09:26:42.633Z,10.85
2023-05-01T09:29:11.639Z,13.02
2023-05-01T09:31:40.180Z,8.77
2023-05-01T09:34:08.434Z,10.30
2023-05-01T09:36:37.538Z,10.60
2023-05-01T09:39:05.880Z,11.68
2023-05-01T09:41:34.016Z,8.52
2023-05-01T09:44:03.919Z,10.52
2023-05-01T09:46:42.653Z,9.55
2023-05-01T09:49:10.802Z,9.35
2023-05-01T09:51:39.579Z,8.77
2023-05-01T09:54:19.583Z,8.68
2023-05-01T09:56:49.918Z,9.52
2023-05-01T09:59:21.330Z,10.05
2023-05-01T10:01:50.924Z,8.20
2023-05-01T10:04:30.869Z,9.15
2023-05-01T10:06:59.294Z,8.15
2023-05-01T10:09:29.755Z,7.57
2023-05-01T10:11:59.220Z,8.90
2023-05-01T10:14:30.494Z,8.88
2023-05-01T10:16:59.384Z,9.95
2023-05-01T10:19:27.954Z,7.93
2023-05-01T10:21:56.163Z,6.90
2023-05-01T10:24:24.618Z,6.97
2023-05-01T10:26:54.503Z,9.27
2023-05-01T10:29:24.599Z,9.68
2023-05-01T10:31:54.500Z,5.75
2023-05-01T10:34:26.233Z,10.15
2023-05-01T10:37:01.969Z,6.75
2023-05-01T10:39:34.667Z,7.25
2023-05-01T10:42:11.018Z,5.87
2023-05-01T10:44:39.706Z,4.80
2023-05-01T10:47:49.016Z,7.85
2023-05-01T10:50:17.533Z,7.12
2023-05-01T10:53:18.071Z,5.47
2023-05-01T10:55:48.108Z,7.43
2023-05-01T10:58:57.751Z,5.10
2023-05-01T11:01:33.888Z,5.78
2023-05-01T11:04:07.796Z,9.93
2023-05-01T11:06:37.812Z,7.07
2023-05-01T11:09:41.081Z,3.70
2023-05-01T11:12:11.077Z,5.25
2023-05-01T11:15:10.385Z,5.03
2023-05-01T11:17:52.301Z,8.38
2023-05-01T11:20:49.095Z,6.72
2023-05-01T11:23:19.161Z,5.32
2023-05-01T11:25:49.767Z,4.87
2023-05-01T11:28:22.605Z,5.95
2023-05-01T11:30:51.237Z,5.95
2023-05-01T11:33:26.369Z,7.00
2023-05-01T11:36:03.469Z,3.58
2023-05-01T11:38:31.608Z,5.03
2023-05-01T11:41:02.137Z,7.57
2023-05-01T11:43:30.454Z,3.97
2023-05-01T11:46:03.068Z,4.25
2023-05-01T11:48:32.922Z,5.50
2023-05-01T11:51:02.439Z,3.85
2023-05-01T11:53:30.711Z,3.92
2023-05-01T11:56:00.075Z,6.97
2023-05-01T11:58:36.576Z,4.37
2023-05-01T12:01:07.434Z,4.00
2023-05-01T12:03:42.754Z,4.70
2023-05-01T12:06:14.148Z,3.12
2023-05-01T12:08:51.099Z,3.70
2023-05-01T12:11:20.638Z,4.50
2023-05-01T12:13:50.211Z,4.28
2023-05-01T12:16:18.672Z,5.25
2023-05-01T12:18:48.382Z,3.28
2023-05-01T12:21:18.759Z,4.37
2023-05-01T12:23:47.179Z,3.28
2023-05-01T12:26:19.567Z,4.35
2023-05-01T12:28:55.116Z,4.72
2023-05-01T12:31:23.898Z,3.17
2023-05-01T12:33:56.130Z,4.07
2023-05-01T12:36:27.519Z,4.03
2023-05-01T12:38:58.443Z,3.10
2023-05-01T12:41:40.747Z,2.55
2023-05-01T12:44:23.635Z,5.43
2023-05-01T12:46:57.180Z,3.75
2023-05-01T12:49:25.817Z,4.05
2023-05-01T12:51:56.317Z,3.20
2023-05-01T12:54:26.351Z,6.53
2023-05-01T12:57:06.118Z,2.75
2023-05-01T12:59:34.619Z,4.30
2023-05-01T13:02:05.784Z,4.03
2023-05-01T13:04:35.148Z,3.00
2023-05-01T13:07:12.664Z,5.80
2023-05-01T13:09:40.852Z,2.67
2023-05-01T13:12:10.264Z,3.50
2023-05-01T13:14:39.559Z,3.17
2023-05-01T13:17:09.499Z,4.78
2023-05-01T13:19:38.596Z,2.65
2023-05-01T13:22:08.259Z,5.72
2023-05-01T13:24:38.052Z,3.28
2023-05-01T13:27:07.744Z,3.42
2023-05-01T13:29:36.711Z,2.55
2023-05-01T13:32:06.335Z,3.67
2023-05-01T13:34:37.570Z,4.75
2023-05-01T13:37:05.649Z,3.10
2023-05-01T13:39:35.168Z,4.35
2023-05-01T13:42:06.405Z,4.18
2023-05-01T13:44:34.897Z,2.92
2023-05-01T13:47:05.757Z,4.03
2023-05-01T13:49:51.137Z,3.22
2023-05-01T13:52:21.574Z,3.10
2023-05-01T13:54:56.247Z,2.75
2023-05-01T13:57:24.729Z,5.15
2023-05-01T13:59:52.752Z,2.58
2023-05-01T14:02:25.982Z,4.35
2023-05-01T14:04:54.965Z,3.20
2023-05-01T14:07:24.304Z,3.35
2023-05-01T14:09:56.018Z,3.33
2023-05-01T14:12:28.546Z,2.53
2023-05-01T14:15:04.348Z,1.98
2023-05-01T14:17:35.764Z,4.57
2023-05-01T14:20:04.914Z,2.20
2023-05-01T14:22:43.293Z,2.60
2023-05-01T14:25:24.088Z,4.30
2023-05-01T14:27:53.546Z,2.35
2023-05-01T14:30:28.285Z,2.20
2023-05-01T14:32:57.353Z,3.90
2023-05-01T14:35:26.233Z,4.60
2023-05-01T14:37:55.099Z,4.28
2023-05-01T14:40:27.932Z,2.90
2023-05-01T14:42:58.583Z,4.10
2023-05-01T14:45:26.970Z,3.33
2023-05-01T14:47:55.198Z,4.62
2023-05-01T14:50:24.857Z,2.72
2023-05-01T14:53:00.722Z,3.90
2023-05-01T14:55:34.731Z,6.47
2023-05-01T14:58:03.653Z,2.72
2023-05-01T15:00:31.740Z,2.67
2023-05-01T15:03:00.285Z,3.90
2023-05-01T15:05:29.218Z,3.95
2023-05-01T15:07:57.540Z,2.45
2023-05-01T15:10:25.790Z,4.15
2023-05-01T15:12:55.647Z,2.45
2023-05-01T15:15:23.747Z,3.58
2023-05-01T15:17:51.880Z,3.53
2023-05-01T15:20:20.309Z,2.28
2023-05-01T15:22:48.506Z,4.15
2023-05-01T15:25:16.822Z,2.15
2023-05-01T15:27:46.208Z,3.55
2023-05-01T15:30:16.065Z,4.15
2023-05-01T15:32:44.876Z,3.25
2023-05-01T15:35:13.520Z,2.60
2023-05-01T15:37:42.319Z,3.58
2023-05-01T15:40:11.398Z,5.15
2023-05-01T15:42:40.932Z,3.50
2023-05-01T15:45:10.444Z,3.83
2023-05-01T15:47:40.128Z,3.33
2023-05-01T15:50:11.964Z,6.55
2023-05-01T15:52:40.656Z,2.72
2023-05-01T15:55:09.501Z,3.40
2023-05-01T15:57:37.607Z,4.12
2023-05-01T16:00:08.486Z,3.97
2023-05-01T16:02:37.221Z,3.65
2023-05-01T16:05:08.569Z,4.15
2023-05-01T16:07:37.312Z,2.40
2023-05-01T16:10:06.417Z,3.55
2023-05-01T16:12:34.615Z,4.20
2023-05-01T16:15:03.868Z,3.28
2023-05-01T16:17:33.658Z,4.90
2023-05-01T16:20:02.855Z,3.85
2023-05-01T16:22:33.741Z,4.45
2023-05-01T16:25:01.717Z,4.62
2023-05-01T16:27:29.739Z,3.45
2023-05-01T16:29:58.382Z,4.07
2023-05-01T16:32:26.973Z,3.05
2023-05-01T16:34:54.949Z,2.67
2023-05-01T16:37:26.732Z,2.42
2023-05-01T16:39:59.490Z,3.35
2023-05-01T16:42:28.295Z,4.07
2023-05-01T16:44:57.430Z,3.12
2023-05-01T16:47:25.791Z,5.68
2023-05-01T16:50:00.966Z,4.28
2023-05-01T16:52:29.620Z,3.17
2023-05-01T16:54:59.496Z,3.12
2023-05-01T16:57:27.562Z,5.55
2023-05-01T16:59:55.779Z,3.30
2023-05-01T17:02:24.263Z,3.58
2023-05-01T17:04:52.396Z,10.18
2023-05-01T17:07:23.550Z,3.45
2023-05-01T17:09:51.970Z,2.90
2023-05-01T17:12:21.379Z,2.85
2023-05-01T17:14:49.461Z,3.90
2023-05-01T17:17:18.658Z,3.97
2023-05-01T17:19:46.976Z,5.10
2023-05-01T17:22:15.145Z,4.20
2023-05-01T17:24:43.683Z,5.72
2023-05-01T17:27:12.260Z,3.72
2023-05-01T17:29:42.148Z,3.87
2023-05-01T17:32:10.529Z,3.40
2023-05-01T17:34:38.623Z,3.17
2023-05-01T17:37:06.897Z,3.92
2023-05-01T17:39:35.498Z,3.40
2023-05-01T17:42:11.519Z,4.55
2023-05-01T17:44:42.319Z,4.20
2023-05-01T17:47:10.798Z,3.67
2023-05-01T17:49:38.818Z,3.60
2023-05-01T17:52:06.996Z,2.47
2023-05-01T17:54:35.059Z,2.92
2023-05-01T17:57:04.061Z,4.18
2023-05-01T17:59:32.800Z,3.65
2023-05-01T18:02:03.989Z,3.67
2023-05-01T18:04:32.821Z,2.55
2023-05-01T18:07:01.045Z,3.60
2023-05-01T18:09:29.285Z,3.10
2023-05-01T18:11:58.514Z,3.22
2023-05-01T18:14:26.559Z,3.00
2023-05-01T18:16:54.693Z,5.57
2023-05-01T18:19:24.376Z,4.07
2023-05-01T18:21:52.610Z,3.25
2023-05-01T18:24:21.087Z,2.65
2023-05-01T18:26:49.374Z,2.78
2023-05-01T18:29:17.373Z,2.33
2023-05-01T18:31:45.498Z,4.00
2023-05-01T18:34:14.049Z,3.25
2023-05-01T18:36:43.536Z,2.92
2023-05-01T18:39:11.865Z,3.62
2023-05-01T18:41:40.316Z,2.85
2023-05-01T18:44:08.487Z,5.22
2023-05-01T18:46:36.834Z,3.55
2023-05-01T18:49:05.167Z,5.85
2023-05-01T18:51:33.359Z,2.75
2023-05-01T18:54:04.824Z,2.20
2023-05-01T18:56:33.336Z,2.33
2023-05-01T18:59:01.902Z,4.10
2023-05-01T19:01:29.905Z,3.08
2023-05-01T19:03:59.454Z,4.05
2023-05-01T19:06:27.861Z,3.80
2023-05-01T19:08:56.418Z,3.28
2023-05-01T19:11:30.365Z,2.72
2023-05-01T19:13:58.619Z,3.33
2023-05-01T19:16:27.163Z,3.28
2023-05-01T19:18:55.375Z,2.80
2023-05-01T19:21:24.613Z,2.22
2023-05-01T19:23:52.880Z,4.40
2023-05-01T19:26:21.976Z,2.58
2023-05-01T19:28:51.311Z,4.75
2023-05-01T19:31:19.978Z,4.12
2023-05-01T19:33:48.358Z,4.53
2023-05-01T19:36:16.271Z,3.83
2023-05-01T19:38:45.473Z,4.43
2023-05-01T19:41:14.092Z,3.35
2023-05-01T19:43:42.195Z,6.37
2023-05-01T19:46:12.041Z,3.12
2023-05-01T19:48:40.326Z,3.90
2023-05-01T19:51:08.707Z,2.62
2023-05-01T19:53:37.257Z,3.42
2023-05-01T19:56:06.775Z,3.62
2023-05-01T19:58:35.060Z,4.40
2023-05-01T20:01:08.291Z,4.93
2023-05-01T20:03:38.241Z,4.80
2023-05-01T20:06:07.428Z,4.85
2023-05-01T20:08:35.604Z,3.50
2023-05-01T20:11:04.026Z,3.85
2023-05-01T20:13:32.057Z,4.12
2023-05-01T20:16:00.193Z,6.37
2023-05-01T20:18:28.653Z,3.53
2023-05-01T20:20:58.171Z,4.25
2023-05-01T20:23:26.304Z,4.05
2023-05-01T20:25:55.151Z,3.20
2023-05-01T20:28:23.541Z,3.50
2023-05-01T20:30:51.888Z,6.68
2023-05-01T20:33:20.531Z,4.85
2023-05-01T20:35:48.799Z,5.53
2023-05-01T20:38:18.315Z,6.07
2023-05-01T20:40:46.718Z,5.00
2023-05-01T20:43:14.743Z,5.28
2023-05-01T20:45:42.927Z,6.82
2023-05-01T20:48:11.336Z,7.72
2023-05-01T20:50:41.499Z,3.40
2023-05-01T20:53:09.608Z,6.20
2023-05-01T20:55:39.507Z,4.60
2023-05-01T20:58:07.627Z,4.87
2023-05-01T21:00:35.726Z,5.43
2023-05-01T21:03:04.337Z,5.00
2023-05-01T21:05:32.592Z,5.57
2023-05-01T21:08:00.784Z,3.90
2023-05-01T21:10:29.345Z,5.72
2023-05-01T21:12:58.855Z,7.15
2023-05-01T21:15:27.596Z,5.12
2023-05-01T21:17:56.074Z,4.20
2023-05-01T21:20:31.931Z,4.75
2023-05-01T21:23:00.959Z,4.37
2023-05-01T21:25:31.892Z,6.30
2023-05-01T21:28:03.416Z,5.45
2023-05-01T21:30:33.609Z,5.18
2023-05-01T21:33:03.050Z,6.15
2023-05-01T21:35:31.305Z,4.18
2023-05-01T21:38:00.078Z,4.62
2023-05-01T21:40:28.689Z,4.03
2023-05-01T21:42:57.274Z,5.68
2023-05-01T21:45:27.849Z,5.28
2023-05-01T21:47:56.379Z,5.60
2023-05-01T21:50:24.765Z,3.78
2023-05-01T21:52:53.084Z,4.50
2023-05-01T21:55:22.987Z,4.80
2023-05-01T21:57:51.210Z,5.12
2023-05-01T22:00:20.744Z,4.53
2023-05-01T22:02:52.156Z,6.30
2023-05-01T22:05:22.910Z,8.05
2023-05-01T22:07:54.014Z,5.95
2023-05-01T22:10:22.098Z,6.28
2023-05-01T22:12:50.550Z,6.37
2023-05-01T22:15:19.180Z,6.72
2023-05-01T22:17:47.382Z,5.32
2023-05-01T22:20:17.282Z,7.18
2023-05-01T22:22:45.972Z,4.60
2023-05-01T22:25:16.163Z,5.20
2023-05-01T22:27:44.631Z,6.05
2023-05-01T22:30:13.747Z,6.30
2023-05-01T22:32:41.908Z,4.97
2023-05-01T22:35:10.411Z,5.10
2023-05-01T22:37:40.048Z,5.65
2023-05-01T22:40:09.169Z,6.43
2023-05-01T22:42:37.322Z,5.10
2023-05-01T22:45:07.161Z,4.65
2023-05-01T22:47:35.474Z,4.97
2023-05-01T22:50:03.713Z,4.28
2023-05-01T22:52:32.184Z,4.62
2023-05-01T22:55:01.707Z,4.93
2023-05-01T22:57:29.983Z,4.62
2023-05-01T22:59:58.434Z,4.78
2023-05-01T23:02:26.796Z,4.57
2023-05-01T23:04:54.924Z,4.55
2023-05-01T23:07:23.432Z,5.95
2023-05-01T23:09:51.446Z,6.03
2023-05-01T23:12:23.137Z,4.45
2023-05-01T23:14:51.505Z,6.60
2023-05-01T23:17:19.586Z,3.85
2023-05-01T23:19:47.560Z,3.60
2023-05-01T23:22:16.152Z,4.28
2023-05-01T23:24:48.247Z,5.85
2023-05-01T23:27:19.164Z,5.22
2023-05-01T23:29:56.659Z,4.47
2023-05-01T23:32:28.030Z,5.30
2023-05-01T23:35:01.009Z,5.32
2023-05-01T23:37:29.498Z,4.90
2023-05-01T23:39:58.834Z,4.90
2023-05-01T23:42:28.221Z,3.60
2023-05-01T23:44:58.337Z,8.20
2023-05-01T23:47:26.814Z,6.43
2023-05-01T23:49:55.073Z,5.07
2023-05-01T23:52:23.716Z,5.57
2023-05-01T23:54:51.760Z,5.25
2023-05-01T23:57:19.920Z,5.40
2023-05-01T23:59:48.480Z,5.28
